TimeEDT,TemperatureF,Dew PointF,Humidity,Sea Level PressureIn,VisibilityMPH,Wind Direction,Wind SpeedMPH,Gust SpeedMPH,PrecipitationIn,Events,Conditions,WindDirDegrees,DateUTC
12:56 AM,70.0,63.0,78,30.04,10.0,Calm,Calm,-,N/A,,Clear,0,2013-07-07 04:56:00
1:56 AM,71.1,63.0,75,30.05,10.0,Calm,Calm,-,N/A,,Clear,0,2013-07-07 05:56:00
2:56 AM,66.9,63.0,87,30.04,10.0,Calm,Calm,-,N/A,,Clear,0,2013-07-07 06:56:00
3:56 AM,66.0,64.0,93,30.03,10.0,Calm,Calm,-,N/A,,Clear,0,2013-07-07 07:56:00
4:56 AM,66.9,64.9,93,30.03,10.0,Calm,Calm,-,N/A,,Clear,0,2013-07-07 08:56:00
5:56 AM,66.0,64.9,96,30.03,9.0,Calm,Calm,-,N/A,,Clear,0,2013-07-07 09:56:00
6:56 AM,73.0,66.9,81,30.04,10.0,Calm,Calm,-,N/A,,Clear,0,2013-07-07 10:56:00
7:56 AM,75.9,66.9,74,30.04,10.0,WSW,5.8,-,N/A,,Clear,240,2013-07-07 11:56:00
8:56 AM,78.1,68.0,71,30.04,10.0,WSW,8.1,-,N/A,,Clear,240,2013-07-07 12:56:00
9:56 AM,84.0,68.0,58,30.03,10.0,WSW,4.6,-,N/A,,Mostly Cloudy,250,2013-07-07 13:56:00
10:56 AM,86.0,70.0,59,30.02,10.0,Variable,4.6,-,N/A,,Clear,0,2013-07-07 14:56:00
11:56 AM,87.1,70.0,57,30.02,10.0,West,8.1,-,N/A,,Mostly Cloudy,280,2013-07-07 15:56:00
12:56 PM,87.1,70.0,57,30.01,10.0,WNW,9.2,-,N/A,,Clear,300,2013-07-07 16:56:00
1:56 PM,90.0,71.1,54,29.99,10.0,NNW,4.6,-,N/A,,Mostly Cloudy,330,2013-07-07 17:56:00
2:56 PM,91.0,71.1,52,29.96,10.0,Variable,4.6,-,N/A,,Clear,0,2013-07-07 18:56:00
3:56 PM,88.0,72.0,59,29.95,10.0,SSW,4.6,-,N/A,,Mostly Cloudy,210,2013-07-07 19:56:00
4:56 PM,84.0,75.0,74,29.96,10.0,SSW,5.8,-,N/A,,Clear,200,2013-07-07 20:56:00
5:56 PM,82.9,75.9,79,29.95,10.0,SSW,9.2,-,0.00,Rain,Light Rain,200,2013-07-07 21:56:00
6:56 PM,78.1,75.0,90,29.92,10.0,Calm,Calm,-,0.03,,Overcast,0,2013-07-07 22:56:00
7:56 PM,77.0,73.0,88,29.95,10.0,WSW,4.6,-,N/A,,Overcast,240,2013-07-07 23:56:00
8:56 PM,75.0,73.0,94,29.95,10.0,SSW,3.5,-,N/A,,Clear,210,2013-07-08 00:56:00
9:56 PM,73.9,72.0,93,29.97,10.0,WSW,3.5,-,N/A,,Clear,250,2013-07-08 01:56:00
10:56 PM,73.0,71.1,93,29.96,10.0,SW,3.5,-,N/A,,Clear,230,2013-07-08 02:56:00
11:56 PM,73.0,71.1,93,29.95,10.0,Calm,Calm,-,N/A,,Clear,0,2013-07-08 03:56:00